sensor_id;sensor_type;location;lat;lon;timestamp;temperature;humidity
41630;DHT22;27322;49.488;8.480;2023-05-01T00:01:23;13.60;99.90
41630;DHT22;27322;49.488;8.480;2023-05-01T00:03:49;13.60;99.90
41630;DHT22;27322;49.488;8.480;2023-05-01T00:06:14;13.60;99.90
41630;DHT22;27322;49.488;8.480;2023-05-01T00:08:40;13.50;99.90
41630;DHT22;27322;49.488;8.480;2023-05-01T00:11:05;13.50;99.90
41630;DHT22;27322;49.488;8.480;2023-05-01T00:13:35;13.50;99.90
41630;DHT22;27322;49.488;8.480;2023-05-01T00:16:01;13.50;99.90
41630;DHT22;27322;49.488;8.480;2023-05-01T00:18:29;13.50;99.90
41630;DHT22;27322;49.488;8.480;2023-05-01T00:20:54;13.40;99.90
41630;DHT22;27322;49.488;8.480;2023-05-01T00:23:20;13.40;99.90
41630;DHT22;27322;49.488;8.480;2023-05-01T00:25:45;13.40;99.90
41630;DHT22;27322;49.488;8.480;2023-05-01T00:28:11;13.40;99.90
41630;DHT22;27322;49.488;8.480;2023-05-01T00:30:36;13.40;99.90
41630;DHT22;27322;49.488;8.480;2023-05-01T00:33:02;13.40;99.90
41630;DHT22;27322;49.488;8.480;2023-05-01T00:35:29;13.40;99.90
41630;DHT22;27322;49.488;8.480;2023-05-01T00:37:54;13.40;99.90
41630;DHT22;27322;49.488;8.480;2023-05-01T00:40:20;13.40;99.90
41630;DHT22;27322;49.488;8.480;2023-05-01T00:42:47;13.40;99.90
41630;DHT22;27322;49.488;8.480;2023-05-01T00:45:12;13.40;99.90
41630;DHT22;27322;49.488;8.480;2023-05-01T00:47:38;13.40;99.90
41630;DHT22;27322;49.488;8.480;2023-05-01T00:50:06;13.40;99.90
41630;DHT22;27322;49.488;8.480;2023-05-01T00:52:32;13.30;99.90
41630;DHT22;27322;49.488;8.480;2023-05-01T00:54:58;13.30;99.90
41630;DHT22;27322;49.488;8.480;2023-05-01T00:57:24;13.30;99.90
41630;DHT22;27322;49.488;8.480;2023-05-01T00:59:49;13.30;99.90
41630;DHT22;27322;49.488;8.480;2023-05-01T01:02:15;13.30;99.90
41630;DHT22;27322;49.488;8.480;2023-05-01T01:04:45;13.30;99.90
41630;DHT22;27322;49.488;8.480;2023-05-01T01:12:37;13.30;99.90
41630;DHT22;27322;49.488;8.480;2023-05-01T01:17:54;13.30;99.90
41630;DHT22;27322;49.488;8.480;2023-05-01T01:28:33;13.20;99.90
41630;DHT22;27322;49.488;8.480;2023-05-01T01:31:16;13.20;99.90
41630;DHT22;27322;49.488;8.480;2023-05-01T01:33:49;13.20;99.90
41630;DHT22;27322;49.488;8.480;2023-05-01T01:41:51;13.10;99.90
41630;DHT22;27322;49.488;8.480;2023-05-01T01:44:29;13.10;99.90
41630;DHT22;27322;49.488;8.480;2023-05-01T01:46:58;13.10;99.90
41630;DHT22;27322;49.488;8.480;2023-05-01T01:49:26;13.10;99.90
41630;DHT22;27322;49.488;8.480;2023-05-01T01:51:54;13.10;99.90
41630;DHT22;27322;49.488;8.480;2023-05-01T01:54:26;13.10;99.90
41630;DHT22;27322;49.488;8.480;2023-05-01T01:56:55;13.10;99.90
41630;DHT22;27322;49.488;8.480;2023-05-01T01:59:23;13.10;99.90
41630;DHT22;27322;49.488;8.480;2023-05-01T02:01:50;13.00;99.90
41630;DHT22;27322;49.488;8.480;2023-05-01T02:04:18;13.10;99.90
41630;DHT22;27322;49.488;8.480;2023-05-01T02:06:44;13.10;99.90
41630;DHT22;27322;49.488;8.480;2023-05-01T02:09:11;13.10;99.90
41630;DHT22;27322;49.488;8.480;2023-05-01T02:11:41;13.10;99.90
41630;DHT22;27322;49.488;8.480;2023-05-01T02:14:07;13.10;99.90
41630;DHT22;27322;49.488;8.480;2023-05-01T02:16:36;13.20;99.90
41630;DHT22;27322;49.488;8.480;2023-05-01T02:19:03;13.10;99.90
41630;DHT22;27322;49.488;8.480;2023-05-01T02:21:29;13.10;99.90
41630;DHT22;27322;49.488;8.480;2023-05-01T02:23:59;13.10;99.90
41630;DHT22;27322;49.488;8.480;2023-05-01T02:26:28;13.10;99.90
41630;DHT22;27322;49.488;8.480;2023-05-01T02:28:53;13.10;99.90
41630;DHT22;27322;49.488;8.480;2023-05-01T02:31:19;13.20;99.90
41630;DHT22;27322;49.488;8.480;2023-05-01T02:33:46;13.20;99.90
41630;DHT22;27322;49.488;8.480;2023-05-01T02:36:11;13.20;99.90
41630;DHT22;27322;49.488;8.480;2023-05-01T02:38:37;13.20;99.90
41630;DHT22;27322;49.488;8.480;2023-05-01T02:41:03;13.20;99.90
41630;DHT22;27322;49.488;8.480;2023-05-01T02:43:31;13.20;99.90
41630;DHT22;27322;49.488;8.480;2023-05-01T02:45:58;13.20;99.90
41630;DHT22;27322;49.488;8.480;2023-05-01T02:48:27;13.20;99.90
41630;DHT22;27322;49.488;8.480;2023-05-01T02:50:53;13.20;99.90
41630;DHT22;27322;49.488;8.480;2023-05-01T02:53:20;13.10;99.90
41630;DHT22;27322;49.488;8.480;2023-05-01T02:55:47;13.10;99.90
41630;DHT22;27322;49.488;8.480;2023-05-01T02:58:16;13.20;99.90
41630;DHT22;27322;49.488;8.480;2023-05-01T03:00:43;13.10;99.90
41630;DHT22;27322;49.488;8.480;2023-05-01T03:03:09;13.10;99.90
41630;DHT22;27322;49.488;8.480;2023-05-01T03:05:35;13.10;99.90
41630;DHT22;27322;49.488;8.480;2023-05-01T03:08:00;13.10;99.90
41630;DHT22;27322;49.488;8.480;2023-05-01T03:10:26;13.10;99.90
41630;DHT22;27322;49.488;8.480;2023-05-01T03:12:52;13.10;99.90
41630;DHT22;27322;49.488;8.480;2023-05-01T03:15:17;13.10;99.90
41630;DHT22;27322;49.488;8.480;2023-05-01T03:17:43;13.10;99.90
41630;DHT22;27322;49.488;8.480;2023-05-01T03:20:08;13.10;99.90
41630;DHT22;27322;49.488;8.480;2023-05-01T03:22:35;13.10;99.90
41630;DHT22;27322;49.488;8.480;2023-05-01T03:25:01;13.10;99.90
41630;DHT22;27322;49.488;8.480;2023-05-01T03:27:28;13.10;99.90
41630;DHT22;27322;49.488;8.480;2023-05-01T03:29:55;13.10;99.90
41630;DHT22;27322;49.488;8.480;2023-05-01T03:32:20;13.00;99.90
41630;DHT22;27322;49.488;8.480;2023-05-01T03:34:47;13.10;99.90
41630;DHT22;27322;49.488;8.480;2023-05-01T03:37:12;13.00;99.90
41630;DHT22;27322;49.488;8.480;2023-05-01T03:39:38;13.00;99.90
41630;DHT22;27322;49.488;8.480;2023-05-01T03:42:04;13.00;99.90
41630;DHT22;27322;49.488;8.480;2023-05-01T03:44:30;13.00;99.90
41630;DHT22;27322;49.488;8.480;2023-05-01T03:46:55;13.00;99.90
41630;DHT22;27322;49.488;8.480;2023-05-01T03:49:21;13.00;99.90
41630;DHT22;27322;49.488;8.480;2023-05-01T03:51:47;13.00;99.90
41630;DHT22;27322;49.488;8.480;2023-05-01T03:54:12;13.00;99.90
41630;DHT22;27322;49.488;8.480;2023-05-01T03:56:38;13.00;99.90
41630;DHT22;27322;49.488;8.480;2023-05-01T03:59:04;13.00;99.90
41630;DHT22;27322;49.488;8.480;2023-05-01T04:01:29;13.00;99.90
41630;DHT22;27322;49.488;8.480;2023-05-01T04:03:58;13.00;99.90
41630;DHT22;27322;49.488;8.480;2023-05-01T04:06:23;13.00;99.90
41630;DHT22;27322;49.488;8.480;2023-05-01T04:08:50;13.00;99.90
41630;DHT22;27322;49.488;8.480;2023-05-01T04:11:16;13.00;99.90
41630;DHT22;27322;49.488;8.480;2023-05-01T04:13:41;13.00;99.90
41630;DHT22;27322;49.488;8.480;2023-05-01T04:16:07;13.10;99.90
41630;DHT22;27322;49.488;8.480;2023-05-01T04:18:32;13.00;99.90
41630;DHT22;27322;49.488;8.480;2023-05-01T04:20:58;13.00;99.90
41630;DHT22;27322;49.488;8.480;2023-05-01T04:23:23;13.00;99.90
41630;DHT22;27322;49.488;8.480;2023-05-01T04:25:49;13.10;99.90
41630;DHT22;27322;49.488;8.480;2023-05-01T04:28:15;13.00;99.90
41630;DHT22;27322;49.488;8.480;2023-05-01T04:30:40;13.10;99.90
41630;DHT22;27322;49.488;8.480;2023-05-01T04:33:06;13.10;99.90
41630;DHT22;27322;49.488;8.480;2023-05-01T04:35:39;13.10;99.90
41630;DHT22;27322;49.488;8.480;2023-05-01T04:38:05;13.10;99.90
41630;DHT22;27322;49.488;8.480;2023-05-01T04:40:31;13.10;99.90
41630;DHT22;27322;49.488;8.480;2023-05-01T04:42:56;13.10;99.90
41630;DHT22;27322;49.488;8.480;2023-05-01T04:45:22;13.10;99.90
41630;DHT22;27322;49.488;8.480;2023-05-01T04:47:48;13.10;99.90
41630;DHT22;27322;49.488;8.480;2023-05-01T04:50:13;13.10;99.90
41630;DHT22;27322;49.488;8.480;2023-05-01T04:52:39;13.10;99.90
41630;DHT22;27322;49.488;8.480;2023-05-01T04:55:05;13.10;99.90
41630;DHT22;27322;49.488;8.480;2023-05-01T04:57:31;13.10;99.90
41630;DHT22;27322;49.488;8.480;2023-05-01T04:59:57;13.10;99.90
41630;DHT22;27322;49.488;8.480;2023-05-01T05:02:23;13.10;99.90
41630;DHT22;27322;49.488;8.480;2023-05-01T05:04:49;13.20;99.90
41630;DHT22;27322;49.488;8.480;2023-05-01T05:07:15;13.10;99.90
41630;DHT22;27322;49.488;8.480;2023-05-01T05:09:41;13.10;99.90
41630;DHT22;27322;49.488;8.480;2023-05-01T05:12:06;13.10;99.90
41630;DHT22;27322;49.488;8.480;2023-05-01T05:14:32;13.20;99.90
41630;DHT22;27322;49.488;8.480;2023-05-01T05:16:57;13.20;99.90
41630;DHT22;27322;49.488;8.480;2023-05-01T05:19:23;13.10;99.90
41630;DHT22;27322;49.488;8.480;2023-05-01T05:21:48;13.20;99.90
41630;DHT22;27322;49.488;8.480;2023-05-01T05:24:14;13.20;99.90
41630;DHT22;27322;49.488;8.480;2023-05-01T05:26:39;13.10;99.90
41630;DHT22;27322;49.488;8.480;2023-05-01T05:29:05;13.20;99.90
41630;DHT22;27322;49.488;8.480;2023-05-01T05:31:31;13.20;99.90
41630;DHT22;27322;49.488;8.480;2023-05-01T05:33:57;13.20;99.90
41630;DHT22;27322;49.488;8.480;2023-05-01T05:36:22;13.20;99.90
41630;DHT22;27322;49.488;8.480;2023-05-01T05:38:49;13.20;99.90
41630;DHT22;27322;49.488;8.480;2023-05-01T05:41:14;13.10;99.90
41630;DHT22;27322;49.488;8.480;2023-05-01T05:43:40;13.10;99.90
41630;DHT22;27322;49.488;8.480;2023-05-01T05:46:06;13.20;99.90
41630;DHT22;27322;49.488;8.480;2023-05-01T05:48:31;13.20;99.90
41630;DHT22;27322;49.488;8.480;2023-05-01T05:50:57;13.20;99.90
41630;DHT22;27322;49.488;8.480;2023-05-01T05:53:22;13.20;99.90
41630;DHT22;27322;49.488;8.480;2023-05-01T05:55:48;13.20;99.90
41630;DHT22;27322;49.488;8.480;2023-05-01T05:58:14;13.20;99.90
41630;DHT22;27322;49.488;8.480;2023-05-01T06:00:49;13.30;99.90
41630;DHT22;27322;49.488;8.480;2023-05-01T06:03:16;13.20;99.90
41630;DHT22;27322;49.488;8.480;2023-05-01T06:05:42;13.30;99.90
41630;DHT22;27322;49.488;8.480;2023-05-01T06:08:08;13.30;99.90
41630;DHT22;27322;49.488;8.480;2023-05-01T06:10:38;13.30;99.90
41630;DHT22;27322;49.488;8.480;2023-05-01T06:13:04;13.30;99.90
41630;DHT22;27322;49.488;8.480;2023-05-01T06:15:32;13.30;99.90
41630;DHT22;27322;49.488;8.480;2023-05-01T06:17:58;13.30;99.90
41630;DHT22;27322;49.488;8.480;2023-05-01T06:20:23;13.30;99.90
41630;DHT22;27322;49.488;8.480;2023-05-01T06:22:49;13.30;99.90
41630;DHT22;27322;49.488;8.480;2023-05-01T06:25:15;13.40;99.90
41630;DHT22;27322;49.488;8.480;2023-05-01T06:27:40;13.40;99.90
41630;DHT22;27322;49.488;8.480;2023-05-01T06:30:06;13.40;99.90
41630;DHT22;27322;49.488;8.480;2023-05-01T06:32:33;13.40;99.90
41630;DHT22;27322;49.488;8.480;2023-05-01T06:34:59;13.40;99.90
41630;DHT22;27322;49.488;8.480;2023-05-01T06:37:24;13.40;99.90
41630;DHT22;27322;49.488;8.480;2023-05-01T06:39:50;13.50;99.90
41630;DHT22;27322;49.488;8.480;2023-05-01T06:42:15;13.50;99.90
41630;DHT22;27322;49.488;8.480;2023-05-01T06:44:42;13.50;99.90
41630;DHT22;27322;49.488;8.480;2023-05-01T06:47:07;13.50;99.90
41630;DHT22;27322;49.488;8.480;2023-05-01T06:49:33;13.50;99.90
41630;DHT22;27322;49.488;8.480;2023-05-01T06:51:58;13.50;99.90
41630;DHT22;27322;49.488;8.480;2023-05-01T06:54:24;13.50;99.90
41630;DHT22;27322;49.488;8.480;2023-05-01T06:56:52;13.60;99.90
41630;DHT22;27322;49.488;8.480;2023-05-01T06:59:17;13.60;99.90
41630;DHT22;27322;49.488;8.480;2023-05-01T07:01:43;13.60;99.90
41630;DHT22;27322;49.488;8.480;2023-05-01T07:04:09;13.60;99.90
41630;DHT22;27322;49.488;8.480;2023-05-01T07:06:35;13.60;99.90
41630;DHT22;27322;49.488;8.480;2023-05-01T07:09:01;13.60;99.90
41630;DHT22;27322;49.488;8.480;2023-05-01T07:11:27;13.60;99.90
41630;DHT22;27322;49.488;8.480;2023-05-01T07:13:53;13.70;99.90
41630;DHT22;27322;49.488;8.480;2023-05-01T07:16:19;13.70;99.90
41630;DHT22;27322;49.488;8.480;2023-05-01T07:18:45;13.70;99.90
41630;DHT22;27322;49.488;8.480;2023-05-01T07:21:11;13.80;99.90
41630;DHT22;27322;49.488;8.480;2023-05-01T07:23:37;13.80;99.90
41630;DHT22;27322;49.488;8.480;2023-05-01T07:26:03;13.80;99.90
41630;DHT22;27322;49.488;8.480;2023-05-01T07:28:30;13.80;99.90
41630;DHT22;27322;49.488;8.480;2023-05-01T07:30:56;13.80;99.90
41630;DHT22;27322;49.488;8.480;2023-05-01T07:33:22;13.80;99.90
41630;DHT22;27322;49.488;8.480;2023-05-01T07:35:48;13.90;99.90
41630;DHT22;27322;49.488;8.480;2023-05-01T07:38:15;13.90;99.90
41630;DHT22;27322;49.488;8.480;2023-05-01T07:40:40;13.90;99.90
41630;DHT22;27322;49.488;8.480;2023-05-01T07:43:07;13.90;99.90
41630;DHT22;27322;49.488;8.480;2023-05-01T07:45:36;13.90;99.90
41630;DHT22;27322;49.488;8.480;2023-05-01T07:48:02;14.00;99.90
41630;DHT22;27322;49.488;8.480;2023-05-01T07:50:27;14.00;99.90
41630;DHT22;27322;49.488;8.480;2023-05-01T07:52:53;14.00;99.90
41630;DHT22;27322;49.488;8.480;2023-05-01T07:55:21;14.00;99.90
41630;DHT22;27322;49.488;8.480;2023-05-01T07:57:47;14.00;99.90
41630;DHT22;27322;49.488;8.480;2023-05-01T08:00:13;14.00;99.90
41630;DHT22;27322;49.488;8.480;2023-05-01T08:02:39;14.10;99.90
41630;DHT22;27322;49.488;8.480;2023-05-01T08:05:05;14.10;99.90
41630;DHT22;27322;49.488;8.480;2023-05-01T08:07:31;14.10;99.90
41630;DHT22;27322;49.488;8.480;2023-05-01T08:09:56;14.20;99.90
41630;DHT22;27322;49.488;8.480;2023-05-01T08:12:22;14.20;99.90
41630;DHT22;27322;49.488;8.480;2023-05-01T08:14:48;14.20;99.90
41630;DHT22;27322;49.488;8.480;2023-05-01T08:17:13;14.30;99.90
41630;DHT22;27322;49.488;8.480;2023-05-01T08:19:39;14.30;99.90
41630;DHT22;27322;49.488;8.480;2023-05-01T08:22:05;14.30;99.90
41630;DHT22;27322;49.488;8.480;2023-05-01T08:24:30;14.30;99.90
41630;DHT22;27322;49.488;8.480;2023-05-01T08:26:56;14.40;99.90
41630;DHT22;27322;49.488;8.480;2023-05-01T08:29:22;14.40;99.90
41630;DHT22;27322;49.488;8.480;2023-05-01T08:31:48;14.40;99.90
41630;DHT22;27322;49.488;8.480;2023-05-01T08:34:13;14.40;99.90
41630;DHT22;27322;49.488;8.480;2023-05-01T08:36:39;14.50;99.90
41630;DHT22;27322;49.488;8.480;2023-05-01T08:39:05;14.50;99.90
41630;DHT22;27322;49.488;8.480;2023-05-01T08:41:31;14.50;99.90
41630;DHT22;27322;49.488;8.480;2023-05-01T08:43:58;14.60;99.90
41630;DHT22;27322;49.488;8.480;2023-05-01T08:46:37;14.60;99.90
41630;DHT22;27322;49.488;8.480;2023-05-01T08:49:06;14.60;99.90
41630;DHT22;27322;49.488;8.480;2023-05-01T08:51:33;14.70;99.90
41630;DHT22;27322;49.488;8.480;2023-05-01T08:54:01;14.70;99.90
41630;DHT22;27322;49.488;8.480;2023-05-01T08:56:29;14.70;99.90
41630;DHT22;27322;49.488;8.480;2023-05-01T08:58:57;14.80;99.90
41630;DHT22;27322;49.488;8.480;2023-05-01T09:01:25;14.80;99.90
41630;DHT22;27322;49.488;8.480;2023-05-01T09:03:52;14.90;99.90
41630;DHT22;27322;49.488;8.480;2023-05-01T09:06:19;14.90;99.90
41630;DHT22;27322;49.488;8.480;2023-05-01T09:08:45;15.00;99.90
41630;DHT22;27322;49.488;8.480;2023-05-01T09:11:11;15.10;99.90
41630;DHT22;27322;49.488;8.480;2023-05-01T09:13:36;15.10;99.90
41630;DHT22;27322;49.488;8.480;2023-05-01T09:16:04;15.20;99.90
41630;DHT22;27322;49.488;8.480;2023-05-01T09:18:30;15.20;99.90
41630;DHT22;27322;49.488;8.480;2023-05-01T09:20:56;15.20;99.90
41630;DHT22;27322;49.488;8.480;2023-05-01T09:23:22;15.20;99.90
41630;DHT22;27322;49.488;8.480;2023-05-01T09:25:49;15.20;99.90
41630;DHT22;27322;49.488;8.480;2023-05-01T09:28:14;15.30;99.90
41630;DHT22;27322;49.488;8.480;2023-05-01T09:30:40;15.30;99.90
41630;DHT22;27322;49.488;8.480;2023-05-01T09:33:08;15.30;99.90
41630;DHT22;27322;49.488;8.480;2023-05-01T09:35:53;15.50;99.90
41630;DHT22;27322;49.488;8.480;2023-05-01T09:38:19;15.60;99.90
41630;DHT22;27322;49.488;8.480;2023-05-01T09:40:45;15.80;99.90
41630;DHT22;27322;49.488;8.480;2023-05-01T09:43:11;15.90;99.90
41630;DHT22;27322;49.488;8.480;2023-05-01T09:45:37;16.10;99.90
41630;DHT22;27322;49.488;8.480;2023-05-01T09:48:08;16.30;99.90
41630;DHT22;27322;49.488;8.480;2023-05-01T09:50:35;16.40;99.90
41630;DHT22;27322;49.488;8.480;2023-05-01T09:53:01;16.60;99.90
41630;DHT22;27322;49.488;8.480;2023-05-01T09:55:29;16.70;99.90
41630;DHT22;27322;49.488;8.480;2023-05-01T09:57:55;16.70;99.90
41630;DHT22;27322;49.488;8.480;2023-05-01T10:00:21;16.70;99.90
41630;DHT22;27322;49.488;8.480;2023-05-01T10:02:48;16.70;99.90
41630;DHT22;27322;49.488;8.480;2023-05-01T10:05:14;16.80;99.90
41630;DHT22;27322;49.488;8.480;2023-05-01T10:07:57;16.80;99.80
41630;DHT22;27322;49.488;8.480;2023-05-01T10:10:23;16.80;99.90
41630;DHT22;27322;49.488;8.480;2023-05-01T10:12:50;16.80;99.90
41630;DHT22;27322;49.488;8.480;2023-05-01T10:15:16;16.80;99.90
41630;DHT22;27322;49.488;8.480;2023-05-01T10:17:42;16.80;99.90
41630;DHT22;27322;49.488;8.480;2023-05-01T10:20:10;16.80;99.90
41630;DHT22;27322;49.488;8.480;2023-05-01T10:22:37;16.80;99.90
41630;DHT22;27322;49.488;8.480;2023-05-01T10:25:06;16.80;99.90
41630;DHT22;27322;49.488;8.480;2023-05-01T10:27:33;16.90;98.40
41630;DHT22;27322;49.488;8.480;2023-05-01T10:30:01;17.00;98.80
41630;DHT22;27322;49.488;8.480;2023-05-01T10:32:29;17.20;98.70
41630;DHT22;27322;49.488;8.480;2023-05-01T10:34:58;17.30;97.30
41630;DHT22;27322;49.488;8.480;2023-05-01T10:39:57;17.70;97.30
41630;DHT22;27322;49.488;8.480;2023-05-01T10:42:23;18.00;97.00
41630;DHT22;27322;49.488;8.480;2023-05-01T10:44:48;18.20;96.20
41630;DHT22;27322;49.488;8.480;2023-05-01T10:55:40;18.40;95.80
41630;DHT22;27322;49.488;8.480;2023-05-01T10:58:14;18.30;96.00
41630;DHT22;27322;49.488;8.480;2023-05-01T11:04:00;18.10;96.20
41630;DHT22;27322;49.488;8.480;2023-05-01T11:06:26;17.90;96.50
41630;DHT22;27322;49.488;8.480;2023-05-01T11:08:52;17.70;97.10
41630;DHT22;27322;49.488;8.480;2023-05-01T11:19:05;17.30;99.00
41630;DHT22;27322;49.488;8.480;2023-05-01T11:21:33;17.30;98.70
41630;DHT22;27322;49.488;8.480;2023-05-01T11:24:00;17.30;96.90
41630;DHT22;27322;49.488;8.480;2023-05-01T11:26:27;17.20;97.40
41630;DHT22;27322;49.488;8.480;2023-05-01T11:28:54;17.20;98.80
41630;DHT22;27322;49.488;8.480;2023-05-01T11:31:20;17.10;98.60
41630;DHT22;27322;49.488;8.480;2023-05-01T11:33:46;17.10;98.90
41630;DHT22;27322;49.488;8.480;2023-05-01T11:36:12;17.10;98.30
41630;DHT22;27322;49.488;8.480;2023-05-01T11:38:51;17.10;97.90
41630;DHT22;27322;49.488;8.480;2023-05-01T11:41:20;17.10;98.40
41630;DHT22;27322;49.488;8.480;2023-05-01T11:43:49;17.10;98.50
41630;DHT22;27322;49.488;8.480;2023-05-01T11:46:33;17.10;99.50
41630;DHT22;27322;49.488;8.480;2023-05-01T11:49:00;17.20;99.90
41630;DHT22;27322;49.488;8.480;2023-05-01T11:51:27;17.20;99.50
41630;DHT22;27322;49.488;8.480;2023-05-01T11:54:07;17.20;99.90
41630;DHT22;27322;49.488;8.480;2023-05-01T11:56:35;17.20;99.90
41630;DHT22;27322;49.488;8.480;2023-05-01T11:59:15;17.10;99.80
41630;DHT22;27322;49.488;8.480;2023-05-01T12:01:42;17.10;99.70
41630;DHT22;27322;49.488;8.480;2023-05-01T12:04:09;17.10;99.80
41630;DHT22;27322;49.488;8.480;2023-05-01T12:06:45;17.00;99.70
41630;DHT22;27322;49.488;8.480;2023-05-01T12:09:21;17.00;99.30
41630;DHT22;27322;49.488;8.480;2023-05-01T12:11:50;17.00;99.90
41630;DHT22;27322;49.488;8.480;2023-05-01T12:14:17;17.00;99.70
41630;DHT22;27322;49.488;8.480;2023-05-01T12:16:43;16.90;99.90
41630;DHT22;27322;49.488;8.480;2023-05-01T12:19:12;16.90;99.90
41630;DHT22;27322;49.488;8.480;2023-05-01T12:21:38;16.90;99.90
41630;DHT22;27322;49.488;8.480;2023-05-01T12:24:30;16.90;99.90
41630;DHT22;27322;49.488;8.480;2023-05-01T12:27:00;16.90;99.90
41630;DHT22;27322;49.488;8.480;2023-05-01T12:29:25;16.90;99.90
41630;DHT22;27322;49.488;8.480;2023-05-01T12:32:03;17.00;99.90
41630;DHT22;27322;49.488;8.480;2023-05-01T12:34:29;17.00;99.90
41630;DHT22;27322;49.488;8.480;2023-05-01T12:36:57;17.00;99.90
41630;DHT22;27322;49.488;8.480;2023-05-01T12:39:22;16.90;99.90
41630;DHT22;27322;49.488;8.480;2023-05-01T12:41:48;16.90;99.70
41630;DHT22;27322;49.488;8.480;2023-05-01T12:47:02;17.00;99.10
41630;DHT22;27322;49.488;8.480;2023-05-01T12:49:29;17.00;99.00
41630;DHT22;27322;49.488;8.480;2023-05-01T12:51:58;17.10;98.40
41630;DHT22;27322;49.488;8.480;2023-05-01T12:54:31;17.10;97.90
41630;DHT22;27322;49.488;8.480;2023-05-01T12:59:39;17.20;97.70
41630;DHT22;27322;49.488;8.480;2023-05-01T13:04:31;17.20;98.10
41630;DHT22;27322;49.488;8.480;2023-05-01T13:06:57;17.20;98.70
41630;DHT22;27322;49.488;8.480;2023-05-01T13:09:24;17.20;99.10
41630;DHT22;27322;49.488;8.480;2023-05-01T13:12:01;17.30;98.40
41630;DHT22;27322;49.488;8.480;2023-05-01T13:14:33;17.30;98.10
41630;DHT22;27322;49.488;8.480;2023-05-01T13:17:00;17.20;96.00
41630;DHT22;27322;49.488;8.480;2023-05-01T13:19:26;17.20;95.70
41630;DHT22;27322;49.488;8.480;2023-05-01T13:21:56;17.20;95.20
41630;DHT22;27322;49.488;8.480;2023-05-01T13:24:43;17.20;95.20
41630;DHT22;27322;49.488;8.480;2023-05-01T13:27:11;17.20;94.80
41630;DHT22;27322;49.488;8.480;2023-05-01T13:29:38;17.20;94.80
41630;DHT22;27322;49.488;8.480;2023-05-01T13:32:04;17.20;95.10
41630;DHT22;27322;49.488;8.480;2023-05-01T13:34:32;17.20;96.50
41630;DHT22;27322;49.488;8.480;2023-05-01T13:36:59;17.20;96.40
41630;DHT22;27322;49.488;8.480;2023-05-01T13:39:25;17.20;96.40
41630;DHT22;27322;49.488;8.480;2023-05-01T13:41:52;17.30;96.90
41630;DHT22;27322;49.488;8.480;2023-05-01T13:44:19;17.20;96.70
41630;DHT22;27322;49.488;8.480;2023-05-01T13:46:45;17.20;97.30
41630;DHT22;27322;49.488;8.480;2023-05-01T13:49:12;17.20;96.60
41630;DHT22;27322;49.488;8.480;2023-05-01T13:51:42;17.20;95.70
41630;DHT22;27322;49.488;8.480;2023-05-01T13:54:09;17.20;95.20
41630;DHT22;27322;49.488;8.480;2023-05-01T13:56:36;17.20;94.50
41630;DHT22;27322;49.488;8.480;2023-05-01T13:59:03;17.30;94.80
41630;DHT22;27322;49.488;8.480;2023-05-01T14:01:29;17.30;95.50
41630;DHT22;27322;49.488;8.480;2023-05-01T14:03:55;17.30;96.30
41630;DHT22;27322;49.488;8.480;2023-05-01T14:06:27;17.30;97.90
41630;DHT22;27322;49.488;8.480;2023-05-01T14:08:57;17.30;98.00
41630;DHT22;27322;49.488;8.480;2023-05-01T14:11:23;17.40;97.90
41630;DHT22;27322;49.488;8.480;2023-05-01T14:13:49;17.40;98.00
41630;DHT22;27322;49.488;8.480;2023-05-01T14:16:23;17.50;96.90
41630;DHT22;27322;49.488;8.480;2023-05-01T14:18:49;17.60;96.00
41630;DHT22;27322;49.488;8.480;2023-05-01T14:21:18;17.60;95.90
41630;DHT22;27322;49.488;8.480;2023-05-01T14:23:46;17.50;96.20
41630;DHT22;27322;49.488;8.480;2023-05-01T14:26:17;17.50;96.60
41630;DHT22;27322;49.488;8.480;2023-05-01T14:28:43;17.40;96.50
41630;DHT22;27322;49.488;8.480;2023-05-01T14:31:29;17.40;97.10
41630;DHT22;27322;49.488;8.480;2023-05-01T14:33:57;17.40;97.80
41630;DHT22;27322;49.488;8.480;2023-05-01T14:36:24;17.40;96.40
41630;DHT22;27322;49.488;8.480;2023-05-01T14:38:50;17.40;96.30
41630;DHT22;27322;49.488;8.480;2023-05-01T14:41:16;17.40;95.70
41630;DHT22;27322;49.488;8.480;2023-05-01T14:43:45;17.40;95.60
41630;DHT22;27322;49.488;8.480;2023-05-01T14:46:13;17.40;95.30
41630;DHT22;27322;49.488;8.480;2023-05-01T14:48:41;17.40;95.60
41630;DHT22;27322;49.488;8.480;2023-05-01T14:51:18;17.40;95.70
41630;DHT22;27322;49.488;8.480;2023-05-01T14:53:44;17.40;96.30
41630;DHT22;27322;49.488;8.480;2023-05-01T14:56:10;17.40;95.90
41630;DHT22;27322;49.488;8.480;2023-05-01T14:58:36;17.40;94.90
41630;DHT22;27322;49.488;8.480;2023-05-01T15:01:01;17.30;95.30
41630;DHT22;27322;49.488;8.480;2023-05-01T15:03:28;17.30;95.10
41630;DHT22;27322;49.488;8.480;2023-05-01T15:05:53;17.30;95.60
41630;DHT22;27322;49.488;8.480;2023-05-01T15:08:19;17.20;95.70
41630;DHT22;27322;49.488;8.480;2023-05-01T15:10:45;17.20;96.80
41630;DHT22;27322;49.488;8.480;2023-05-01T15:13:11;17.20;97.10
41630;DHT22;27322;49.488;8.480;2023-05-01T15:15:37;17.20;96.90
41630;DHT22;27322;49.488;8.480;2023-05-01T15:18:02;17.20;97.20
41630;DHT22;27322;49.488;8.480;2023-05-01T15:20:28;17.10;96.90
41630;DHT22;27322;49.488;8.480;2023-05-01T15:22:54;17.10;96.90
41630;DHT22;27322;49.488;8.480;2023-05-01T15:25:20;17.20;96.40
41630;DHT22;27322;49.488;8.480;2023-05-01T15:27:46;17.20;96.50
41630;DHT22;27322;49.488;8.480;2023-05-01T15:30:12;17.20;96.90
41630;DHT22;27322;49.488;8.480;2023-05-01T15:32:38;17.20;97.40
41630;DHT22;27322;49.488;8.480;2023-05-01T15:35:04;17.10;97.10
41630;DHT22;27322;49.488;8.480;2023-05-01T15:37:30;17.20;97.50
41630;DHT22;27322;49.488;8.480;2023-05-01T15:39:57;17.20;98.00
41630;DHT22;27322;49.488;8.480;2023-05-01T15:42:23;17.20;97.80
41630;DHT22;27322;49.488;8.480;2023-05-01T15:44:49;17.20;97.40
41630;DHT22;27322;49.488;8.480;2023-05-01T15:47:15;17.30;96.90
41630;DHT22;27322;49.488;8.480;2023-05-01T15:49:40;17.30;96.60
41630;DHT22;27322;49.488;8.480;2023-05-01T15:52:06;17.30;96.70
41630;DHT22;27322;49.488;8.480;2023-05-01T15:54:32;17.30;96.60
41630;DHT22;27322;49.488;8.480;2023-05-01T15:56:58;17.30;96.40
41630;DHT22;27322;49.488;8.480;2023-05-01T15:59:25;17.30;96.10
41630;DHT22;27322;49.488;8.480;2023-05-01T16:01:52;17.30;95.70
41630;DHT22;27322;49.488;8.480;2023-05-01T16:04:19;17.30;95.90
41630;DHT22;27322;49.488;8.480;2023-05-01T16:06:44;17.30;95.90
41630;DHT22;27322;49.488;8.480;2023-05-01T16:09:11;17.30;96.30
41630;DHT22;27322;49.488;8.480;2023-05-01T16:11:37;17.30;96.80
41630;DHT22;27322;49.488;8.480;2023-05-01T16:14:03;17.30;96.90
41630;DHT22;27322;49.488;8.480;2023-05-01T16:16:28;17.30;97.10
41630;DHT22;27322;49.488;8.480;2023-05-01T16:18:58;17.30;97.20
41630;DHT22;27322;49.488;8.480;2023-05-01T16:21:25;17.30;97.00